Avondale, Arizona
Current Conditions -  °F | °C
As of 8:47 PM on Saturday 24 Jan 2015 (Local Time) from KGYR Reporting Station
Clear Clear  
Wind Chill: 13°   Ceiling: Unl
Heat Index: 13°   Visibility: 10mi
Dew Point: -5°   Wind: 5mph
Humidity: 28%   Direction: NA
Pressure: 30.06"   Gusts: NA
Location:  33.44°N, 112.34°W
Report Text: KGYR 250347Z VRB04KT 10SM SKC 13/M05 A3006 RMK LAST
Loading
Personal Weather Stations






























Interactive Weather Map New forecast layout! Learn more

10-Day Weather Forecast

Advertisements
Track Severe Weather on mobile